Buckpasser — WDJ6840 — position and weather

sailwx.info

Track history (hours):
 
Tides and Currents Weather Stations Pressure Air Temp Water Temp Dewpoint Dewpoint Depression Visibility Wind Speed Wind Dir Waves Ship Positions

Buckpasser

Owner: Twilight Yacht Company LLC, Framingham, MA. More information available from US FCC via Universal Licensing System and Coast Guard Vessel Documentation Center.

Last reported at 2018-Feb-12 20:35 UTC. Time now 2018-Apr-21 15:28 UTC.
Position N 25°30' W 080°09'.
Warning: this ship's position is months out of date.

Length 37 m; draft 2 m.

Type: Pleasure craft. MMSI: 368000730.

Date/timePositionNaut miles runAvg speedWind from/ knotsBaromVisibWave heightAir tempDewpointWater temp
2018-Feb-12 20:35N 25°30' W 080°09'110.0
2018-Feb-12 20:30N 25°31' W 080°09'510.3
2018-Feb-12 20:01N 25°36' W 080°07'4 7.5
2018-Feb-12 19:30N 25°39' W 080°09'3 5.4
2018-Feb-12 19:00N 25°40' W 080°11'2 2.4
2018-Feb-12 18:21N 25°42' W 080°11'0 0.0
2018-Feb-12 18:00N 25°42' W 080°11'0 0.0
2018-Feb-12 17:30N 25°42' W 080°11'0 0.0
2018-Feb-12 17:00N 25°42' W 080°11'0 0.0
2018-Feb-12 16:24N 25°42' W 080°11'0 0.0
2018-Feb-12 15:57N 25°42' W 080°11'0 0.0
2018-Feb-12 15:18N 25°42' W 080°11'0 0.0
2018-Feb-12 15:00N 25°42' W 080°11'0 0.0
2018-Feb-12 14:30N 25°42' W 080°11'0 0.0
2018-Feb-12 14:00N 25°42' W 080°11'0 0.0
2018-Feb-12 13:30N 25°42' W 080°11'0 0.0
2018-Feb-12 13:00N 25°42' W 080°11'0 0.0
2018-Feb-12 12:30N 25°42' W 080°11'0 0.0
2018-Feb-12 12:00N 25°42' W 080°11'0 0.0
2018-Feb-12 11:27N 25°42' W 080°11'0 0.0
2018-Feb-12 11:00N 25°42' W 080°11'0 0.0
2018-Feb-12 10:26N 25°42' W 080°11'0 0.0
2018-Feb-12 10:00N 25°42' W 080°11'0 0.0
2018-Feb-12 09:27N 25°42' W 080°11'0 0.0
2018-Feb-12 09:00N 25°42' W 080°11'0 0.0
2018-Feb-12 08:24N 25°42' W 080°11'0 0.0
2018-Feb-12 08:00N 25°42' W 080°11'0 0.0
2018-Feb-12 07:30N 25°42' W 080°11'0 0.0
2018-Feb-12 07:00N 25°42' W 080°11'0 0.0
2018-Feb-12 06:26N 25°42' W 080°11'0 0.0
2018-Feb-12 05:57N 25°42' W 080°11'0 0.0
2018-Feb-12 05:29N 25°42' W 080°11'0 0.0
2018-Feb-12 05:00N 25°42' W 080°11'0 0.0
2018-Feb-12 04:30N 25°42' W 080°11'0 0.0
2018-Feb-12 04:00N 25°42' W 080°11'0 0.0
2018-Feb-12 03:30N 25°42' W 080°11'0 0.0
2018-Feb-12 03:00N 25°42' W 080°11'0 0.0
2018-Feb-12 02:30N 25°42' W 080°11'0 0.0
2018-Feb-12 02:00N 25°42' W 080°11'0 0.0
2018-Feb-12 01:30N 25°42' W 080°11'0 0.0
2018-Feb-12 01:00N 25°42' W 080°11'1 1.9
2018-Feb-12 00:30N 25°41' W 080°11'3 5.7
2018-Feb-12 00:00N 25°39' W 080°09'5 9.0
2018-Feb-11 23:30N 25°35' W 080°08'611.1
2018-Feb-11 23:00N 25°29' W 080°09'  
Track history (hours):
 
Tides and Currents Weather Stations Pressure Air Temp Water Temp Dewpoint Dewpoint Depression Visibility Wind Speed Wind Dir Waves Ship Positions

Buckpasser

Owner: Twilight Yacht Company LLC, Framingham, MA. More information available from US FCC via Universal Licensing System and Coast Guard Vessel Documentation Center.

Last reported at 2018-Feb-12 20:35 UTC. Time now 2018-Apr-21 15:28 UTC.
Position N 25°30' W 080°09'.
Warning: this ship's position is months out of date.

Length 37 m; draft 2 m.

Type: Pleasure craft. MMSI: 368000730.

Date/timePositionNaut miles runAvg speedWind from/ knotsBaromVisibWave heightAir tempDewpointWater temp
2018-Feb-12 20:35N 25°30' W 080°09'110.0
2018-Feb-12 20:30N 25°31' W 080°09'510.3
2018-Feb-12 20:01N 25°36' W 080°07'4 7.5
2018-Feb-12 19:30N 25°39' W 080°09'3 5.4
2018-Feb-12 19:00N 25°40' W 080°11'2 2.4
2018-Feb-12 18:21N 25°42' W 080°11'0 0.0
2018-Feb-12 18:00N 25°42' W 080°11'0 0.0
2018-Feb-12 17:30N 25°42' W 080°11'0 0.0
2018-Feb-12 17:00N 25°42' W 080°11'0 0.0
2018-Feb-12 16:24N 25°42' W 080°11'0 0.0
2018-Feb-12 15:57N 25°42' W 080°11'0 0.0
2018-Feb-12 15:18N 25°42' W 080°11'0 0.0
2018-Feb-12 15:00N 25°42' W 080°11'0 0.0
2018-Feb-12 14:30N 25°42' W 080°11'0 0.0
2018-Feb-12 14:00N 25°42' W 080°11'0 0.0
2018-Feb-12 13:30N 25°42' W 080°11'0 0.0
2018-Feb-12 13:00N 25°42' W 080°11'0 0.0
2018-Feb-12 12:30N 25°42' W 080°11'0 0.0
2018-Feb-12 12:00N 25°42' W 080°11'0 0.0
2018-Feb-12 11:27N 25°42' W 080°11'0 0.0
2018-Feb-12 11:00N 25°42' W 080°11'0 0.0
2018-Feb-12 10:26N 25°42' W 080°11'0 0.0
2018-Feb-12 10:00N 25°42' W 080°11'0 0.0
2018-Feb-12 09:27N 25°42' W 080°11'0 0.0
2018-Feb-12 09:00N 25°42' W 080°11'0 0.0
2018-Feb-12 08:24N 25°42' W 080°11'0 0.0
2018-Feb-12 08:00N 25°42' W 080°11'0 0.0
2018-Feb-12 07:30N 25°42' W 080°11'0 0.0
2018-Feb-12 07:00N 25°42' W 080°11'0 0.0
2018-Feb-12 06:26N 25°42' W 080°11'0 0.0
2018-Feb-12 05:57N 25°42' W 080°11'0 0.0
2018-Feb-12 05:29N 25°42' W 080°11'0 0.0
2018-Feb-12 05:00N 25°42' W 080°11'0 0.0
2018-Feb-12 04:30N 25°42' W 080°11'0 0.0
2018-Feb-12 04:00N 25°42' W 080°11'0 0.0
2018-Feb-12 03:30N 25°42' W 080°11'0 0.0
2018-Feb-12 03:00N 25°42' W 080°11'0 0.0
2018-Feb-12 02:30N 25°42' W 080°11'0 0.0
2018-Feb-12 02:00N 25°42' W 080°11'0 0.0
2018-Feb-12 01:30N 25°42' W 080°11'0 0.0
2018-Feb-12 01:00N 25°42' W 080°11'1 1.9
2018-Feb-12 00:30N 25°41' W 080°11'3 5.7
2018-Feb-12 00:00N 25°39' W 080°09'5 9.0
2018-Feb-11 23:30N 25°35' W 080°08'611.1
2018-Feb-11 23:00N 25°29' W 080°09'  

Dump ship's entire track history